Skip to main content.
Our real time weather data display below is updated continuously via our 24/7 live data feed.
 TIME   TEMPERATURE   WINDSPEED   DIRECTION   HUMIDITY   BAROMETER   RAINFALL 
18:40 14.0°C (57.2°F) 22.2 kmh (13.8 mph) WNW 76% 1021.0hPa (30.15 inHg) 0.0mm (0.00 in.)
17:40 15.0°C (59.0 °F) 31.5 kmh (19.6 mph) NW 72% 1021.0hPa (30.15 inHg) 0.0mm (0.00 in.)
16:40 16.0°C (60.8 °F) 31.5 kmh (19.6 mph) WNW 67% 1021.0hPa (30.15 inHg) 0.0mm (0.00 in.)
15:40 16.0°C (60.8 °F) 31.5 kmh (19.6 mph) WNW 63% 1020.0hPa (30.12 inHg) 0.0mm (0.00 in.)
14:40 16.0°C (60.8 °F) 29.6 kmh (18.4 mph) NW 55% 1021.0hPa (30.15 inHg) 0.0mm (0.00 in.)
13:40 17.0°C (62.6 °F) 29.6 kmh (18.4 mph) NW 48% 1021.0hPa (30.15 inHg) 0.0mm (0.00 in.)
12:40 17.0°C (62.6 °F) 31.5 kmh (19.6 mph) NNW 48% 1022.0hPa (30.18 inHg) 0.0mm (0.00 in.)
11:40 17.0°C (62.6 °F) 29.6 kmh (18.4 mph) NNW 51% 1022.0hPa (30.18 inHg) 0.0mm (0.00 in.)
10:40 16.0°C (60.8 °F) 31.5 kmh (19.6 mph) NW 58% 1022.0hPa (30.18 inHg) 0.0mm (0.00 in.)
9:40 15.0°C (59.0 °F) 27.8 kmh (17.3 mph) NNW 67% 1022.0hPa (30.18 inHg) 0.0mm (0.00 in.)
8:40 13.0°C (55.4 °F) 16.7 kmh (10.4 mph) WNW 76% 1021.0hPa (30.15 inHg) 0.0mm (0.00 in.)
7:40 12.0°C (53.6 °F) 16.7 kmh (10.4 mph) NW 87% 1021.0hPa (30.15 inHg) 0.0mm (0.00 in.)
6:40 12.0°C (53.6 °F) 18.5 kmh (11.5 mph) NW 81% 1020.0hPa (30.12 inHg) 0.0mm (0.00 in.)
5:40 12.0°C (53.6 °F) 18.5 kmh (11.5 mph) NW 81% 1020.0hPa (30.12 inHg) 0.0mm (0.00 in.)
4:40 12.0°C (53.6 °F) 20.4 kmh (12.7 mph) NW 81% 1020.0hPa (30.12 inHg) 0.0mm (0.00 in.)
3:40 13.0°C (55.4 °F) 25.9 kmh (16.1 mph) NW 76% 1020.0hPa (30.12 inHg) 0.0mm (0.00 in.)
2:40 13.0°C (55.4 °F) 29.6 kmh (18.4 mph) NW 76% 1021.0hPa (30.15 inHg) 0.0mm (0.00 in.)
1:40 13.0°C (55.4 °F) 29.6 kmh (18.4 mph) NW 76% 1021.0hPa (30.15 inHg) 0.0mm (0.00 in.)
0:40 13.0°C (55.4 °F) 31.5 kmh (19.6 mph) NW 71% 1021.0hPa (30.15 inHg) 0.0mm (0.00 in.)
23:40 12.0°C (53.6 °F) 31.5 kmh (19.6 mph) NW 81% 1021.0hPa (30.15 inHg) 0.0mm (0.00 in.)
22:40 12.0°C (53.6 °F) 29.6 kmh (18.4 mph) NW 81% 1021.0hPa (30.15 inHg) 0.0mm (0.00 in.)
21:40 12.0°C (53.6 °F) 35.2 kmh (21.9 mph) NW 81% 1021.0hPa (30.15 inHg) 0.0mm (0.00 in.)
20:40 13.0°C (55.4 °F) 29.6 kmh (18.4 mph) NW 81% 1021.0hPa (30.15 inHg) 0.0mm (0.00 in.)
19:40 13.0°C (55.4 °F) 25.9 kmh (16.1 mph) NW 81% 1021.0hPa (30.15 inHg) 0.0mm (0.00 in.)